createdAt,value
2022-10-06T00:00:19.847Z,0
2022-10-06T00:01:20.488Z,0
2022-10-06T00:02:21.149Z,0
2022-10-06T00:03:21.781Z,0
2022-10-06T00:04:22.350Z,0
2022-10-06T00:05:22.945Z,0
2022-10-06T00:06:23.542Z,0
2022-10-06T00:07:24.133Z,0
2022-10-06T00:08:24.977Z,0
2022-10-06T00:09:25.733Z,0
2022-10-06T00:10:26.326Z,0
2022-10-06T00:11:26.920Z,0
2022-10-06T00:12:27.514Z,0
2022-10-06T00:13:28.108Z,0
2022-10-06T00:14:28.702Z,0
2022-10-06T00:15:29.312Z,0
2022-10-06T00:16:29.889Z,0
2022-10-06T00:17:30.482Z,0
2022-10-06T00:18:31.618Z,0
2022-10-06T00:19:31.686Z,0
2022-10-06T00:20:32.282Z,0
2022-10-06T00:21:32.875Z,0
2022-10-06T00:22:33.476Z,0
2022-10-06T00:23:34.064Z,0
2022-10-06T00:24:34.675Z,0
2022-10-06T00:25:35.266Z,0
2022-10-06T00:26:35.862Z,0
2022-10-06T00:27:36.455Z,0
2022-10-06T00:28:37.123Z,0
2022-10-06T00:29:37.697Z,0
2022-10-06T00:30:38.291Z,0
2022-10-06T00:31:38.883Z,0
2022-10-06T00:32:39.480Z,0
2022-10-06T00:33:40.071Z,0
2022-10-06T00:34:40.663Z,0
2022-10-06T00:35:41.256Z,0
2022-10-06T00:36:41.855Z,0
2022-10-06T00:37:42.464Z,0
2022-10-06T00:38:43.059Z,0
2022-10-06T00:39:43.653Z,0
2022-10-06T00:40:44.247Z,0
2022-10-06T00:41:44.839Z,0
2022-10-06T00:42:45.433Z,0
2022-10-06T00:43:46.027Z,0
2022-10-06T00:44:46.621Z,0
2022-10-06T00:45:47.214Z,0
2022-10-06T00:46:47.809Z,0
2022-10-06T00:47:48.404Z,0
2022-10-06T00:48:49.000Z,0
2022-10-06T00:49:49.589Z,0
2022-10-06T00:50:50.184Z,0
2022-10-06T00:51:50.778Z,0
2022-10-06T00:52:51.371Z,0
2022-10-06T00:53:51.962Z,0
2022-10-06T00:54:52.558Z,0
2022-10-06T00:55:53.151Z,0
2022-10-06T00:56:53.746Z,0
2022-10-06T00:57:54.339Z,0
2022-10-06T00:58:54.935Z,0
2022-10-06T00:59:55.526Z,0
2022-10-06T01:00:56.121Z,0
2022-10-06T01:01:56.790Z,0
2022-10-06T01:02:57.479Z,0
2022-10-06T01:03:58.046Z,0
2022-10-06T01:04:58.637Z,0
2022-10-06T01:05:59.231Z,0
2022-10-06T01:06:59.826Z,0
2022-10-06T01:08:00.416Z,0
2022-10-06T01:09:01.011Z,0
2022-10-06T01:10:01.606Z,0
2022-10-06T01:11:02.232Z,0
2022-10-06T01:12:02.808Z,0
2022-10-06T01:13:03.401Z,0
2022-10-06T01:14:03.996Z,0
2022-10-06T01:15:04.592Z,0
2022-10-06T01:16:05.245Z,0
2022-10-06T01:17:05.792Z,0
2022-10-06T01:18:06.386Z,0
2022-10-06T01:19:06.981Z,0
2022-10-06T01:20:07.592Z,0
2022-10-06T01:21:08.185Z,0
2022-10-06T01:22:08.782Z,0
2022-10-06T01:23:09.392Z,0
2022-10-06T01:24:09.987Z,0
2022-10-06T01:25:10.579Z,0
2022-10-06T01:26:11.174Z,0
2022-10-06T01:27:11.788Z,0
2022-10-06T01:28:12.447Z,0
2022-10-06T01:29:13.038Z,0
2022-10-06T01:30:13.625Z,0
2022-10-06T01:31:14.246Z,0
2022-10-06T01:32:14.813Z,0
2022-10-06T01:33:15.406Z,0
2022-10-06T01:34:16.002Z,0
2022-10-06T01:35:16.596Z,0
2022-10-06T01:36:17.189Z,0
2022-10-06T01:37:17.784Z,0
2022-10-06T01:38:18.377Z,0
2022-10-06T01:39:18.971Z,0
2022-10-06T01:40:19.565Z,0
2022-10-06T01:41:20.158Z,0
2022-10-06T01:42:20.750Z,0
2022-10-06T01:43:21.348Z,0
2022-10-06T01:44:21.958Z,0
2022-10-06T01:45:22.553Z,0
2022-10-06T01:46:23.178Z,0
2022-10-06T01:47:23.740Z,0
2022-10-06T01:48:24.337Z,0
2022-10-06T01:49:24.930Z,0
2022-10-06T01:50:25.522Z,0
2022-10-06T01:51:26.116Z,0
2022-10-06T01:52:26.736Z,0
2022-10-06T01:53:27.304Z,0
2022-10-06T01:54:27.896Z,0
2022-10-06T01:55:28.492Z,0
2022-10-06T01:56:29.082Z,0
2022-10-06T01:57:29.689Z,0
2022-10-06T01:58:30.807Z,0
2022-10-06T01:59:31.581Z,0
2022-10-06T02:00:32.172Z,0
2022-10-06T02:01:32.821Z,0
2022-10-06T02:02:33.362Z,0
2022-10-06T02:03:33.956Z,0
2022-10-06T02:04:34.549Z,0
2022-10-06T02:05:35.160Z,0
2022-10-06T02:06:35.820Z,0
2022-10-06T02:07:36.364Z,0
2022-10-06T02:08:36.953Z,0
2022-10-06T02:09:37.549Z,0
2022-10-06T02:10:38.142Z,0
2022-10-06T02:11:38.738Z,0
2022-10-06T02:12:39.331Z,0
2022-10-06T02:13:39.925Z,0
2022-10-06T02:14:40.517Z,0
2022-10-06T02:15:41.168Z,0
2022-10-06T02:16:41.717Z,0
2022-10-06T02:17:42.310Z,0
2022-10-06T02:18:42.901Z,0
2022-10-06T02:19:43.568Z,0
2022-10-06T02:20:44.105Z,0
2022-10-06T02:21:44.700Z,0
2022-10-06T02:22:45.290Z,0
2022-10-06T02:23:45.886Z,0
2022-10-06T02:24:46.481Z,0
2022-10-06T02:25:47.079Z,0
2022-10-06T02:26:47.695Z,0
2022-10-06T02:27:48.286Z,0
2022-10-06T02:28:48.917Z,0
2022-10-06T02:29:49.471Z,0
2022-10-06T02:30:50.172Z,0
2022-10-06T02:31:50.725Z,0
2022-10-06T02:32:51.322Z,0
2022-10-06T02:33:51.914Z,0
2022-10-06T02:34:52.508Z,0
2022-10-06T02:35:53.102Z,0
2022-10-06T02:36:53.696Z,0
2022-10-06T02:37:54.294Z,0
2022-10-06T02:38:54.883Z,0
2022-10-06T02:39:55.476Z,0
2022-10-06T02:40:56.071Z,0
2022-10-06T02:41:56.667Z,0
2022-10-06T02:42:57.258Z,0
2022-10-06T02:43:57.853Z,0
2022-10-06T02:44:58.447Z,0
2022-10-06T02:45:59.040Z,0
2022-10-06T02:46:59.641Z,0
2022-10-06T02:48:00.226Z,0
2022-10-06T02:49:00.820Z,0
2022-10-06T02:50:01.413Z,0
2022-10-06T02:51:02.012Z,0
2022-10-06T02:52:02.627Z,0
2022-10-06T02:53:03.219Z,0
2022-10-06T02:54:03.812Z,0
2022-10-06T02:55:04.408Z,0
2022-10-06T02:56:05.000Z,0
2022-10-06T02:57:05.596Z,0
2022-10-06T02:58:06.188Z,0
2022-10-06T02:59:06.782Z,0
2022-10-06T03:00:07.405Z,0
2022-10-06T03:01:07.990Z,0
2022-10-06T03:02:08.649Z,0
2022-10-06T03:03:09.251Z,0
2022-10-06T03:04:09.812Z,0
2022-10-06T03:05:10.405Z,0
2022-10-06T03:06:10.999Z,0
2022-10-06T03:07:11.600Z,0
2022-10-06T03:08:12.184Z,0
2022-10-06T03:09:12.777Z,0
2022-10-06T03:10:13.373Z,0
2022-10-06T03:11:13.973Z,0
2022-10-06T03:12:14.559Z,0
2022-10-06T03:13:15.152Z,0
2022-10-06T03:14:21.360Z,0
2022-10-06T03:15:17.336Z,0
2022-10-06T03:16:18.000Z,0
2022-10-06T03:17:18.567Z,0
2022-10-06T03:18:19.162Z,0
2022-10-06T03:19:19.757Z,0
2022-10-06T03:20:20.352Z,0
2022-10-06T03:21:20.946Z,0
2022-10-06T03:22:21.540Z,0
2022-10-06T03:23:22.136Z,0
2022-10-06T03:24:22.728Z,0
2022-10-06T03:25:23.325Z,0
2022-10-06T03:26:23.937Z,0
2022-10-06T03:27:24.530Z,0
2022-10-06T03:28:25.291Z,0
2022-10-06T03:29:26.080Z,0
2022-10-06T03:30:26.674Z,0
2022-10-06T03:31:27.302Z,0
2022-10-06T03:32:27.859Z,0
2022-10-06T03:33:28.456Z,0
2022-10-06T03:34:29.049Z,0
2022-10-06T03:35:29.739Z,0
2022-10-06T03:36:30.332Z,0
2022-10-06T03:37:30.929Z,0
2022-10-06T03:38:31.819Z,0
2022-10-06T03:39:32.487Z,0
2022-10-06T03:40:33.081Z,0
2022-10-06T03:41:33.676Z,0
2022-10-06T03:42:34.288Z,0
2022-10-06T03:43:34.882Z,0
2022-10-06T03:44:35.480Z,0
2022-10-06T03:45:36.072Z,0
2022-10-06T03:46:36.754Z,0
2022-10-06T03:47:37.319Z,0
2022-10-06T03:48:37.913Z,0
2022-10-06T03:49:38.507Z,0
2022-10-06T03:50:39.102Z,0
2022-10-06T03:51:39.697Z,0
2022-10-06T03:52:40.308Z,0
2022-10-06T03:53:40.901Z,0
2022-10-06T03:54:41.495Z,0
2022-10-06T03:55:42.088Z,0
2022-10-06T03:56:42.679Z,0
2022-10-06T03:57:43.275Z,0
2022-10-06T03:58:43.869Z,0
2022-10-06T03:59:44.463Z,0
2022-10-06T04:00:45.083Z,0
2022-10-06T04:01:45.718Z,0
2022-10-06T04:02:46.289Z,0
2022-10-06T04:03:46.882Z,0
2022-10-06T04:04:47.475Z,0
2022-10-06T04:05:48.070Z,0
2022-10-06T04:06:48.663Z,0
2022-10-06T04:07:49.274Z,0
2022-10-06T04:08:49.869Z,0
2022-10-06T04:09:50.462Z,0
2022-10-06T04:10:51.054Z,0
2022-10-06T04:11:51.649Z,0
2022-10-06T04:12:52.241Z,0
2022-10-06T04:13:52.840Z,0
2022-10-06T04:14:56.567Z,0
2022-10-06T04:15:55.094Z,0
2022-10-06T04:16:55.627Z,0
2022-10-06T04:17:56.221Z,0
2022-10-06T04:18:56.812Z,0
2022-10-06T04:19:57.408Z,0
2022-10-06T04:20:58.021Z,0
2022-10-06T04:21:58.616Z,0
2022-10-06T04:22:59.206Z,0
2022-10-06T04:23:59.802Z,0
2022-10-06T04:25:00.392Z,0
2022-10-06T04:26:00.987Z,0
2022-10-06T04:27:01.579Z,0
2022-10-06T04:28:02.225Z,0
2022-10-06T04:29:02.813Z,0
2022-10-06T04:30:03.407Z,0
2022-10-06T04:31:03.999Z,0
2022-10-06T04:32:04.627Z,0
2022-10-06T04:33:05.206Z,0
2022-10-06T04:34:05.800Z,0
2022-10-06T04:35:06.394Z,0
2022-10-06T04:36:07.009Z,0
2022-10-06T04:37:07.602Z,0
2022-10-06T04:38:08.195Z,0
2022-10-06T04:39:08.790Z,0
2022-10-06T04:40:09.388Z,0
2022-10-06T04:41:09.978Z,0
2022-10-06T04:42:10.576Z,0
2022-10-06T04:43:11.169Z,0
2022-10-06T04:44:11.766Z,0
2022-10-06T04:45:12.359Z,0
2022-10-06T04:46:40.803Z,0
2022-10-06T04:47:14.439Z,0
2022-10-06T04:48:15.033Z,0
2022-10-06T04:49:20.032Z,0
2022-10-06T04:50:17.220Z,0
2022-10-06T04:51:17.831Z,0
2022-10-06T04:52:18.426Z,0
2022-10-06T04:53:19.020Z,0
2022-10-06T04:54:19.678Z,0
2022-10-06T04:55:20.224Z,0
2022-10-06T04:56:20.820Z,0
2022-10-06T04:57:21.412Z,4
2022-10-06T04:58:22.009Z,4
2022-10-06T04:59:22.601Z,0
2022-10-06T05:00:23.194Z,4
2022-10-06T05:01:23.815Z,4
2022-10-06T05:02:24.421Z,4
2022-10-06T05:03:24.990Z,4
2022-10-06T05:04:25.584Z,4
2022-10-06T05:05:26.178Z,8
2022-10-06T05:06:26.850Z,8
2022-10-06T05:07:27.381Z,8
2022-10-06T05:08:28.439Z,12
2022-10-06T05:09:29.258Z,16
2022-10-06T05:10:29.853Z,16
2022-10-06T05:11:30.454Z,24
2022-10-06T05:12:31.052Z,24
2022-10-06T05:13:31.644Z,32
2022-10-06T05:14:32.240Z,40
2022-10-06T05:15:32.869Z,48
2022-10-06T05:16:33.515Z,60
2022-10-06T05:17:34.085Z,72
2022-10-06T05:18:34.679Z,84
2022-10-06T05:19:35.275Z,96
2022-10-06T05:20:35.872Z,116
2022-10-06T05:21:36.473Z,132
2022-10-06T05:22:37.069Z,152
2022-10-06T05:23:37.667Z,172
2022-10-06T05:24:38.262Z,200
2022-10-06T05:25:38.874Z,224
2022-10-06T05:26:39.456Z,256
2022-10-06T05:27:40.052Z,292
2022-10-06T05:28:40.683Z,328
2022-10-06T05:29:41.246Z,364
2022-10-06T05:30:41.843Z,404
2022-10-06T05:31:42.484Z,440
2022-10-06T05:32:43.046Z,496
2022-10-06T05:33:43.644Z,540
2022-10-06T05:34:44.249Z,592
2022-10-06T05:35:44.862Z,640
2022-10-06T05:36:45.460Z,688
2022-10-06T05:37:46.057Z,748
2022-10-06T05:38:46.657Z,800
2022-10-06T05:39:47.251Z,860
2022-10-06T05:40:47.848Z,920
2022-10-06T05:41:48.444Z,976
2022-10-06T05:42:49.042Z,1040
2022-10-06T05:43:49.636Z,1108
2022-10-06T05:44:50.235Z,1176
2022-10-06T05:45:50.895Z,1244
2022-10-06T05:46:51.447Z,1308
2022-10-06T05:47:52.047Z,1444
2022-10-06T05:48:52.645Z,1520
2022-10-06T05:49:53.243Z,1556
2022-10-06T05:50:53.843Z,1604
2022-10-06T05:51:54.440Z,1664
2022-10-06T05:52:55.041Z,1736
2022-10-06T05:53:55.636Z,1812
2022-10-06T05:54:56.235Z,1884
2022-10-06T05:55:56.831Z,1952
2022-10-06T05:56:57.430Z,2032
2022-10-06T05:57:58.049Z,2108
2022-10-06T05:58:58.655Z,2172
2022-10-06T05:59:59.245Z,2244
2022-10-06T06:00:59.844Z,2288
2022-10-06T06:02:00.604Z,2316
2022-10-06T06:03:01.308Z,2360
2022-10-06T06:04:01.875Z,2432
2022-10-06T06:05:02.472Z,2492
2022-10-06T06:06:03.070Z,2584
2022-10-06T06:07:03.721Z,2688
2022-10-06T06:08:04.311Z,2824
2022-10-06T06:09:04.911Z,2944
2022-10-06T06:10:05.515Z,3084
2022-10-06T06:11:06.108Z,3216
2022-10-06T06:12:06.707Z,3320
2022-10-06T06:13:07.308Z,3404
2022-10-06T06:14:07.909Z,3472
2022-10-06T06:15:08.512Z,3544
2022-10-06T06:16:09.150Z,3608
2022-10-06T06:17:09.738Z,3676
2022-10-06T06:18:10.336Z,3740
2022-10-06T06:19:10.935Z,3800
2022-10-06T06:20:11.534Z,3868
2022-10-06T06:21:12.134Z,3940
2022-10-06T06:22:12.733Z,4004
2022-10-06T06:23:13.335Z,4068
2022-10-06T06:24:13.935Z,4132
2022-10-06T06:25:14.536Z,4184
2022-10-06T06:26:15.136Z,4240
2022-10-06T06:27:15.760Z,4296
2022-10-06T06:28:16.421Z,4368
2022-10-06T06:29:17.003Z,4428
2022-10-06T06:30:17.596Z,4488
2022-10-06T06:31:20.357Z,4548
2022-10-06T06:32:19.808Z,4596
2022-10-06T06:33:20.427Z,4648
2022-10-06T06:34:21.029Z,4696
2022-10-06T06:35:21.629Z,4804
2022-10-06T06:36:22.253Z,4996
2022-10-06T06:37:22.866Z,5224
2022-10-06T06:38:23.465Z,5340
2022-10-06T06:39:24.066Z,5432
2022-10-06T06:40:24.662Z,5508
2022-10-06T06:41:25.261Z,5600
2022-10-06T06:42:25.859Z,5660
2022-10-06T06:43:26.861Z,5480
2022-10-06T06:44:27.785Z,5284
2022-10-06T06:45:28.382Z,5320
2022-10-06T06:46:29.069Z,5360
2022-10-06T06:47:29.594Z,5404
2022-10-06T06:48:30.485Z,5448
2022-10-06T06:49:31.232Z,5512
2022-10-06T06:50:31.835Z,5540
2022-10-06T06:51:32.433Z,5592
2022-10-06T06:52:33.031Z,5632
2022-10-06T06:53:33.631Z,5672
2022-10-06T06:54:34.230Z,5740
2022-10-06T06:55:34.849Z,5796
2022-10-06T06:56:35.531Z,5828
2022-10-06T06:57:36.066Z,5804
2022-10-06T06:58:36.663Z,5864
2022-10-06T06:59:37.262Z,5896
2022-10-06T07:00:37.858Z,5944
2022-10-06T07:01:38.612Z,6320
2022-10-06T07:02:39.202Z,7192
2022-10-06T07:03:56.734Z,7536
2022-10-06T07:04:40.419Z,7696
2022-10-06T07:05:41.017Z,7344
2022-10-06T07:06:41.635Z,7976
2022-10-06T07:07:42.235Z,8200
2022-10-06T07:08:42.837Z,8420
2022-10-06T07:09:43.434Z,8532
2022-10-06T07:10:44.036Z,8392
2022-10-06T07:11:44.640Z,8300
2022-10-06T07:12:45.250Z,8436
2022-10-06T07:13:45.848Z,8776
2022-10-06T07:14:46.448Z,8620
2022-10-06T07:15:47.101Z,8748
2022-10-06T07:16:47.686Z,9040
2022-10-06T07:17:48.284Z,9344
2022-10-06T07:18:48.882Z,9276
2022-10-06T07:19:49.482Z,9792
2022-10-06T07:20:50.082Z,10268
2022-10-06T07:21:50.682Z,10252
2022-10-06T07:22:51.281Z,10360
2022-10-06T07:23:51.881Z,10556
2022-10-06T07:24:52.483Z,11008
2022-10-06T07:25:53.103Z,11144
2022-10-06T07:26:53.724Z,11508
2022-10-06T07:27:54.325Z,11712
2022-10-06T07:28:54.925Z,11624
2022-10-06T07:29:56.280Z,12072
2022-10-06T07:30:57.114Z,12404
2022-10-06T07:31:57.657Z,12636
2022-10-06T07:32:58.255Z,12660
2022-10-06T07:33:58.853Z,12716
2022-10-06T07:34:59.457Z,12692
2022-10-06T07:36:00.053Z,12920
2022-10-06T07:37:04.112Z,13532
2022-10-06T07:38:02.245Z,14264
2022-10-06T07:39:02.847Z,15140
2022-10-06T07:40:03.465Z,15156
2022-10-06T07:41:20.498Z,15076
2022-10-06T07:42:05.657Z,16132
2022-10-06T07:43:06.260Z,17292
2022-10-06T07:44:08.180Z,16996
2022-10-06T07:45:08.451Z,17440
2022-10-06T07:46:09.100Z,18080
2022-10-06T07:47:09.695Z,18720
2022-10-06T07:48:10.292Z,20544
2022-10-06T07:49:10.898Z,21344
2022-10-06T07:50:11.501Z,21120
2022-10-06T07:51:12.092Z,21536
2022-10-06T07:52:12.716Z,21120
2022-10-06T07:53:13.315Z,20320
2022-10-06T07:54:13.915Z,21152
2022-10-06T07:55:14.515Z,23008
2022-10-06T07:56:15.139Z,24672
2022-10-06T07:57:15.737Z,22720
2022-10-06T07:58:16.338Z,23072
2022-10-06T07:59:19.974Z,24320
2022-10-06T08:00:20.633Z,24448
2022-10-06T08:01:21.261Z,25888
2022-10-06T08:02:21.844Z,25024
2022-10-06T08:03:22.530Z,24576
2022-10-06T08:04:23.048Z,27456
2022-10-06T08:05:23.651Z,29952
2022-10-06T08:06:24.254Z,30144
2022-10-06T08:07:24.875Z,26688
2022-10-06T08:08:25.496Z,23808
2022-10-06T08:09:26.097Z,25408
2022-10-06T08:10:26.698Z,27072
2022-10-06T08:11:27.299Z,26752
2022-10-06T08:12:27.899Z,26720
2022-10-06T08:13:28.521Z,26112
2022-10-06T08:14:29.121Z,23328
2022-10-06T08:15:29.728Z,23776
2022-10-06T08:16:30.546Z,26880
2022-10-06T08:17:31.179Z,27136
2022-10-06T08:18:46.043Z,26080
2022-10-06T08:19:33.393Z,29248
2022-10-06T08:20:33.997Z,31296
2022-10-06T08:21:34.597Z,28608
2022-10-06T08:22:35.199Z,28064
2022-10-06T08:23:35.820Z,31968
2022-10-06T08:25:01.118Z,36576
2022-10-06T08:25:38.034Z,36992
2022-10-06T08:26:38.635Z,34144
2022-10-06T08:27:39.237Z,33920
2022-10-06T08:28:39.943Z,36256
2022-10-06T08:29:40.531Z,38560
2022-10-06T08:30:41.132Z,42208
2022-10-06T08:31:41.841Z,46304
2022-10-06T08:32:42.428Z,46752
2022-10-06T08:33:43.032Z,45312
2022-10-06T08:34:43.631Z,47808
2022-10-06T08:35:44.232Z,47168
2022-10-06T08:36:56.947Z,49984
2022-10-06T08:37:46.427Z,47168
2022-10-06T08:38:47.028Z,47712
2022-10-06T08:39:47.630Z,50112
2022-10-06T08:40:48.231Z,43616
2022-10-06T08:41:48.836Z,60192
2022-10-06T08:42:49.436Z,57088
2022-10-06T08:43:50.038Z,50496
2022-10-06T08:44:50.637Z,50880
2022-10-06T08:45:51.313Z,53088
2022-10-06T08:46:51.896Z,49280
2022-10-06T08:47:52.499Z,40960
2022-10-06T08:48:53.097Z,42464
2022-10-06T08:49:54.057Z,47104
2022-10-06T08:50:54.799Z,57440
2022-10-06T08:51:55.401Z,52416
2022-10-06T08:52:56.003Z,45568
2022-10-06T08:53:56.628Z,45696
2022-10-06T08:54:57.227Z,47968
2022-10-06T08:55:57.830Z,55328
2022-10-06T08:56:58.430Z,56128
2022-10-06T08:57:59.086Z,48864
2022-10-06T08:58:59.673Z,44320
2022-10-06T09:00:00.275Z,49632
2022-10-06T09:01:00.943Z,41760
2022-10-06T09:02:01.595Z,50944
2022-10-06T09:03:02.150Z,41376
2022-10-06T09:04:02.749Z,37760
2022-10-06T09:05:03.354Z,43264
2022-10-06T09:06:03.952Z,46144
2022-10-06T09:07:06.602Z,51328
2022-10-06T09:08:06.146Z,45088
2022-10-06T09:09:06.749Z,40128
2022-10-06T09:10:07.352Z,48352
2022-10-06T09:11:07.956Z,52480
2022-10-06T09:12:08.556Z,48480
2022-10-06T09:13:09.157Z,47168
2022-10-06T09:14:09.760Z,49024
2022-10-06T09:15:10.360Z,57248
2022-10-06T09:16:11.006Z,61024
2022-10-06T09:17:11.565Z,54336
2022-10-06T09:18:12.168Z,52960
2022-10-06T09:19:12.765Z,55424
2022-10-06T09:20:13.367Z,61504
2022-10-06T09:21:13.970Z,62240
2022-10-06T09:22:14.579Z,65056
2022-10-06T09:23:15.189Z,61184
2022-10-06T09:24:15.808Z,60704
2022-10-06T09:25:16.378Z,60096
2022-10-06T09:26:16.996Z,70720
2022-10-06T09:27:17.596Z,69984
2022-10-06T09:28:18.218Z,60192
2022-10-06T09:29:18.808Z,58880
2022-10-06T09:30:19.422Z,62976
2022-10-06T09:31:20.093Z,67040
2022-10-06T09:32:20.773Z,72032
2022-10-06T09:33:21.373Z,77440
2022-10-06T09:34:21.974Z,83936
2022-10-06T09:35:22.580Z,86080
2022-10-06T09:36:23.195Z,81216
2022-10-06T09:37:23.799Z,76352
2022-10-06T09:38:24.399Z,73632
2022-10-06T09:39:25.003Z,59840
2022-10-06T09:40:25.623Z,64320
2022-10-06T09:41:26.223Z,61408
2022-10-06T09:42:26.823Z,57024
2022-10-06T09:43:27.422Z,56640
2022-10-06T09:44:28.024Z,54272
2022-10-06T09:45:28.626Z,42720
2022-10-06T09:46:29.228Z,58432
2022-10-06T09:47:29.830Z,34656
2022-10-06T09:48:30.432Z,54752
2022-10-06T09:49:31.034Z,22336
2022-10-06T09:50:31.634Z,56320
2022-10-06T09:51:32.234Z,18008
2022-10-06T09:52:32.838Z,55136
2022-10-06T09:53:37.540Z,51776
2022-10-06T09:54:35.032Z,16312
2022-10-06T09:55:35.633Z,22272
2022-10-06T09:56:36.235Z,17804
2022-10-06T09:57:36.835Z,19072
2022-10-06T09:58:37.437Z,68256
2022-10-06T09:59:40.309Z,19872
2022-10-06T10:00:39.655Z,61184
2022-10-06T10:01:40.229Z,17564
2022-10-06T10:02:40.916Z,75840
2022-10-06T10:03:44.521Z,26048
2022-10-06T10:04:43.149Z,38016
2022-10-06T10:05:43.753Z,19072
2022-10-06T10:06:44.368Z,21600
2022-10-06T10:07:44.967Z,94816
2022-10-06T10:08:45.571Z,83104
2022-10-06T10:09:46.170Z,19264
2022-10-06T10:10:46.777Z,68832
2022-10-06T10:11:47.370Z,22976
2022-10-06T10:12:47.971Z,25344
2022-10-06T10:13:48.573Z,105248
2022-10-06T10:14:49.177Z,90560
2022-10-06T10:15:49.820Z,17804
2022-10-06T10:16:53.277Z,33568
2022-10-06T10:17:51.974Z,75552
2022-10-06T10:18:52.594Z,73920
2022-10-06T10:19:53.214Z,75680
2022-10-06T10:20:53.798Z,77184
2022-10-06T10:21:54.399Z,81792
2022-10-06T10:22:54.999Z,87360
2022-10-06T10:23:55.602Z,84928
2022-10-06T10:24:56.241Z,49216
2022-10-06T10:25:56.803Z,50528
2022-10-06T10:26:57.414Z,41600
2022-10-06T10:27:58.056Z,60352
2022-10-06T10:28:58.611Z,69056
2022-10-06T10:29:59.498Z,78784
2022-10-06T10:31:00.312Z,76768
2022-10-06T10:32:00.851Z,64224
2022-10-06T10:33:01.451Z,53504
2022-10-06T10:34:12.487Z,54976
2022-10-06T10:35:03.668Z,69248
2022-10-06T10:36:04.267Z,87776
2022-10-06T10:37:04.874Z,99456
2022-10-06T10:38:05.478Z,83680
2022-10-06T10:39:06.093Z,86368
2022-10-06T10:40:06.719Z,83712
2022-10-06T10:41:07.317Z,22528
2022-10-06T10:42:07.917Z,97440
2022-10-06T10:43:08.521Z,105344
2022-10-06T10:44:09.141Z,101312
2022-10-06T10:45:09.747Z,33504
2022-10-06T10:46:10.350Z,80800
2022-10-06T10:47:10.951Z,76640
2022-10-06T10:48:11.550Z,71648
2022-10-06T10:49:12.151Z,64704
2022-10-06T10:50:12.754Z,23488
2022-10-06T10:51:13.354Z,18796
2022-10-06T10:52:13.965Z,27648
2022-10-06T10:53:14.628Z,34880
2022-10-06T10:54:15.191Z,25344
2022-10-06T10:55:15.783Z,64224
2022-10-06T10:56:16.399Z,40992
2022-10-06T10:57:17.000Z,67680
2022-10-06T10:58:17.601Z,87456
2022-10-06T10:59:18.221Z,88064
2022-10-06T11:00:18.824Z,92768
2022-10-06T11:01:19.464Z,98880
2022-10-06T11:02:20.056Z,105536
2022-10-06T11:03:20.667Z,102688
2022-10-06T11:04:21.274Z,103840
2022-10-06T11:05:25.391Z,99168
2022-10-06T11:06:23.473Z,85408
2022-10-06T11:07:24.075Z,78080
2022-10-06T11:08:24.677Z,88704
2022-10-06T11:09:25.279Z,103648
2022-10-06T11:10:25.884Z,45440
2022-10-06T11:11:26.483Z,21856
2022-10-06T11:12:27.085Z,65728
2022-10-06T11:13:27.686Z,29632
2022-10-06T11:14:28.286Z,19904
2022-10-06T11:15:28.887Z,19936
2022-10-06T11:16:29.540Z,53632
2022-10-06T11:17:30.158Z,109792
2022-10-06T11:18:30.778Z,23104
2022-10-06T11:19:31.381Z,73792
2022-10-06T11:20:31.980Z,31296
2022-10-06T11:21:32.584Z,106304
2022-10-06T11:22:33.185Z,112064
2022-10-06T11:23:33.788Z,109952
2022-10-06T11:24:34.391Z,27584
2022-10-06T11:25:35.299Z,47168
2022-10-06T11:26:36.016Z,20736
2022-10-06T11:27:36.591Z,20384
2022-10-06T11:28:37.270Z,25280
2022-10-06T11:29:37.810Z,81920
2022-10-06T11:30:38.412Z,19648
2022-10-06T11:31:39.025Z,108512
2022-10-06T11:32:39.732Z,106080
2022-10-06T11:33:40.273Z,104640
2022-10-06T11:34:40.886Z,99200
2022-10-06T11:35:41.476Z,92064
2022-10-06T11:36:42.079Z,82464
2022-10-06T11:37:42.681Z,71552
2022-10-06T11:38:43.282Z,83744
2022-10-06T11:39:43.901Z,90496
2022-10-06T11:40:44.503Z,93568
2022-10-06T11:41:45.105Z,92800
2022-10-06T11:42:45.769Z,82592
2022-10-06T11:43:46.306Z,73632
2022-10-06T11:44:46.927Z,64736
2022-10-06T11:45:47.561Z,65216
2022-10-06T11:46:48.130Z,74944
2022-10-06T11:47:48.732Z,88000
2022-10-06T11:48:49.459Z,96864
2022-10-06T11:49:50.057Z,97760
2022-10-06T11:50:50.659Z,94336
2022-10-06T11:51:53.676Z,97760
2022-10-06T11:52:52.860Z,105920
2022-10-06T11:53:53.459Z,111008
2022-10-06T11:54:54.084Z,109536
2022-10-06T11:55:54.684Z,107904
2022-10-06T11:56:55.291Z,108064
2022-10-06T11:57:55.891Z,109952
2022-10-06T11:58:56.497Z,112928
2022-10-06T11:59:57.099Z,109664
2022-10-06T12:00:57.700Z,100160
2022-10-06T12:01:58.653Z,92128
2022-10-06T12:02:59.456Z,92448
2022-10-06T12:04:00.082Z,97120
2022-10-06T12:05:01.158Z,94976
2022-10-06T12:06:01.918Z,93120
2022-10-06T12:07:02.522Z,95232
2022-10-06T12:08:03.123Z,92320
2022-10-06T12:09:03.727Z,90624
2022-10-06T12:10:04.327Z,96320
2022-10-06T12:11:04.987Z,104352
2022-10-06T12:12:05.578Z,108608
2022-10-06T12:13:08.057Z,106272
2022-10-06T12:17:18.316Z,95968
2022-10-06T12:18:14.155Z,107840
2022-10-06T12:19:14.758Z,115200
2022-10-06T12:20:15.359Z,111840
2022-10-06T12:21:15.963Z,105984
2022-10-06T12:22:16.567Z,103136
2022-10-06T12:23:17.192Z,103680
2022-10-06T12:24:17.793Z,106080
2022-10-06T12:25:18.397Z,108832
2022-10-06T12:26:18.999Z,104416
2022-10-06T12:27:22.110Z,92096
2022-10-06T12:28:21.272Z,81152
2022-10-06T12:29:21.862Z,75168
2022-10-06T12:30:22.463Z,69984
2022-10-06T12:31:23.113Z,71776
2022-10-06T12:32:23.677Z,82048
2022-10-06T12:33:24.279Z,93248
2022-10-06T12:34:24.878Z,99744
2022-10-06T12:35:25.480Z,93728
2022-10-06T12:36:26.085Z,84096
2022-10-06T12:37:26.692Z,78816
2022-10-06T12:38:27.297Z,78560
2022-10-06T12:39:27.906Z,79072
2022-10-06T12:40:28.509Z,81184
2022-10-06T12:41:29.131Z,87168
2022-10-06T12:42:29.752Z,97024
2022-10-06T12:43:30.373Z,109120
2022-10-06T12:44:30.973Z,115488
2022-10-06T12:45:31.578Z,117248
2022-10-06T12:46:32.243Z,105920
2022-10-06T12:47:32.779Z,92640
2022-10-06T12:48:33.383Z,83584
2022-10-06T12:49:33.983Z,81408
2022-10-06T12:50:34.603Z,82432
2022-10-06T12:51:35.322Z,88384
2022-10-06T12:52:35.904Z,95040
2022-10-06T12:53:36.523Z,91904
2022-10-06T12:54:37.124Z,79584
2022-10-06T12:55:37.724Z,70016
2022-10-06T12:56:38.441Z,67104
2022-10-06T12:57:38.959Z,70464
2022-10-06T12:58:39.561Z,82240
2022-10-06T12:59:40.161Z,94112
2022-10-06T13:00:40.806Z,96896
2022-10-06T13:01:41.458Z,94336
2022-10-06T13:02:42.057Z,83200
2022-10-06T13:03:42.639Z,70784
2022-10-06T13:04:43.253Z,70816
2022-10-06T13:05:43.865Z,76480
2022-10-06T13:06:44.467Z,82816
2022-10-06T13:07:45.069Z,87648
2022-10-06T13:08:45.672Z,88704
2022-10-06T13:09:46.275Z,87040
2022-10-06T13:10:46.881Z,92640
2022-10-06T13:11:47.480Z,100608
2022-10-06T13:12:48.080Z,100544
2022-10-06T13:13:48.682Z,99968
2022-10-06T13:14:49.287Z,103328
2022-10-06T13:15:49.889Z,101216
2022-10-06T13:16:50.515Z,97696
2022-10-06T13:17:51.110Z,94752
2022-10-06T13:18:51.702Z,87328
2022-10-06T13:19:52.304Z,85248
2022-10-06T13:20:52.951Z,96544
2022-10-06T13:21:53.577Z,110176
2022-10-06T13:22:54.178Z,114336
2022-10-06T13:23:54.782Z,105440
2022-10-06T13:24:55.383Z,86720
2022-10-06T13:25:55.986Z,73120
2022-10-06T13:26:56.659Z,73504
2022-10-06T13:27:57.260Z,85184
2022-10-06T13:28:57.849Z,97120
2022-10-06T13:29:58.752Z,93440
2022-10-06T13:30:59.149Z,72576
2022-10-06T13:31:59.729Z,52288
2022-10-06T13:33:00.330Z,50016
2022-10-06T13:34:00.936Z,63808
2022-10-06T13:35:01.779Z,83008
2022-10-06T13:36:02.461Z,90400
2022-10-06T13:37:03.068Z,76800
2022-10-06T13:38:06.094Z,64416
2022-10-06T13:39:05.272Z,65728
2022-10-06T13:40:16.554Z,75776
2022-10-06T13:41:07.469Z,94016
2022-10-06T13:42:08.135Z,106336
2022-10-06T13:43:08.717Z,108416
2022-10-06T13:44:09.319Z,112224
2022-10-06T13:45:09.927Z,114304
2022-10-06T13:46:10.600Z,113504
2022-10-06T13:47:11.198Z,108288
2022-10-06T13:48:11.801Z,97728